ePrivacy and GPDR Cookie Consent by Cookie Consent
EmailTwitter


Surface observations / Quebec / CYUL (71627)

Regions: Quebec | Canada | USA | Europe | France | UK | Elsewhere
Station
Display
Info & Location for CYUL (71627) | Help decoding METAR

Weather Conditions observed on 2023/01/31 at 16:00 UTC at MONTREAL INTL A, QB (CYUL)

Sky conditions: few clouds.

Temperature: -12.0 Celsius.

Dewpoint: -21.0 Celsius.

Relative Humidity: 47%

Windchill Factor -19.

Winds: West at 13 km/h or 7 knots.

Mean Sea level Pressure: 102.85 kilopascals.

Altimeter Setting (QNH): 102.81 kilopascals or 30.36 inches of mercury.

Horizontal visibility: 30.00 statute miles or 48.00 kilometers.

Coded METAR:

CYUL 311600Z 28007KT 30SM FEW120 M12/M21 A3036 RMK AC1 AC TR SLP285=